sensor_id;sensor_type;location;lat;lon;timestamp;P1;durP1;ratioP1;P2;durP2;ratioP2
23322;SDS011;11833;52.554;13.554;2023-08-20T00:00:16;11.27;;;9.20;;
23322;SDS011;11833;52.554;13.554;2023-08-20T00:02:43;9.88;;;8.80;;
23322;SDS011;11833;52.554;13.554;2023-08-20T00:05:12;10.20;;;9.18;;
23322;SDS011;11833;52.554;13.554;2023-08-20T00:07:39;10.98;;;9.75;;
23322;SDS011;11833;52.554;13.554;2023-08-20T00:10:05;10.98;;;8.98;;
23322;SDS011;11833;52.554;13.554;2023-08-20T00:12:32;12.43;;;9.25;;
23322;SDS011;11833;52.554;13.554;2023-08-20T00:14:59;9.48;;;8.43;;
23322;SDS011;11833;52.554;13.554;2023-08-20T00:17:31;11.83;;;9.37;;
23322;SDS011;11833;52.554;13.554;2023-08-20T00:20:02;10.13;;;9.07;;
23322;SDS011;11833;52.554;13.554;2023-08-20T00:22:40;10.85;;;9.27;;
23322;SDS011;11833;52.554;13.554;2023-08-20T00:25:10;9.48;;;8.48;;
23322;SDS011;11833;52.554;13.554;2023-08-20T00:27:38;13.73;;;9.45;;
23322;SDS011;11833;52.554;13.554;2023-08-20T00:30:05;12.38;;;9.27;;
23322;SDS011;11833;52.554;13.554;2023-08-20T00:32:31;8.88;;;7.97;;
23322;SDS011;11833;52.554;13.554;2023-08-20T00:34:57;13.20;;;10.55;;
23322;SDS011;11833;52.554;13.554;2023-08-20T00:37:23;10.68;;;9.55;;
23322;SDS011;11833;52.554;13.554;2023-08-20T00:39:48;11.15;;;9.98;;
23322;SDS011;11833;52.554;13.554;2023-08-20T00:42:14;11.38;;;10.25;;
23322;SDS011;11833;52.554;13.554;2023-08-20T00:44:40;11.20;;;9.90;;
23322;SDS011;11833;52.554;13.554;2023-08-20T00:47:09;12.35;;;11.05;;
23322;SDS011;11833;52.554;13.554;2023-08-20T00:49:35;11.75;;;10.60;;
23322;SDS011;11833;52.554;13.554;2023-08-20T00:52:02;10.82;;;9.48;;
23322;SDS011;11833;52.554;13.554;2023-08-20T00:54:29;10.88;;;9.77;;
23322;SDS011;11833;52.554;13.554;2023-08-20T00:56:57;11.25;;;10.15;;
23322;SDS011;11833;52.554;13.554;2023-08-20T00:59:24;10.93;;;9.82;;
23322;SDS011;11833;52.554;13.554;2023-08-20T01:01:51;11.02;;;10.00;;
23322;SDS011;11833;52.554;13.554;2023-08-20T01:04:18;11.15;;;10.05;;
23322;SDS011;11833;52.554;13.554;2023-08-20T01:12:26;10.70;;;9.70;;
23322;SDS011;11833;52.554;13.554;2023-08-20T01:14:54;15.13;;;10.73;;
23322;SDS011;11833;52.554;13.554;2023-08-20T01:17:19;10.75;;;9.75;;
23322;SDS011;11833;52.554;13.554;2023-08-20T01:19:45;13.88;;;10.70;;
23322;SDS011;11833;52.554;13.554;2023-08-20T01:22:28;10.82;;;9.82;;
23322;SDS011;11833;52.554;13.554;2023-08-20T01:28:27;11.80;;;10.70;;
23322;SDS011;11833;52.554;13.554;2023-08-20T01:30:58;10.00;;;9.02;;
23322;SDS011;11833;52.554;13.554;2023-08-20T01:33:28;14.52;;;10.20;;
23322;SDS011;11833;52.554;13.554;2023-08-20T01:35:55;13.15;;;9.55;;
23322;SDS011;11833;52.554;13.554;2023-08-20T01:38:21;10.45;;;9.45;;
23322;SDS011;11833;52.554;13.554;2023-08-20T01:40:47;10.23;;;9.15;;
23322;SDS011;11833;52.554;13.554;2023-08-20T01:43:14;11.32;;;8.73;;
23322;SDS011;11833;52.554;13.554;2023-08-20T01:45:40;12.52;;;9.25;;
23322;SDS011;11833;52.554;13.554;2023-08-20T01:48:06;9.88;;;8.88;;
23322;SDS011;11833;52.554;13.554;2023-08-20T01:50:33;11.93;;;8.98;;
23322;SDS011;11833;52.554;13.554;2023-08-20T01:53:00;11.48;;;9.25;;
23322;SDS011;11833;52.554;13.554;2023-08-20T01:55:28;12.80;;;8.88;;
23322;SDS011;11833;52.554;13.554;2023-08-20T01:57:53;11.10;;;8.18;;
23322;SDS011;11833;52.554;13.554;2023-08-20T02:00:19;11.68;;;9.02;;
23322;SDS011;11833;52.554;13.554;2023-08-20T02:02:45;9.88;;;8.00;;
23322;SDS011;11833;52.554;13.554;2023-08-20T02:05:10;11.57;;;8.85;;
23322;SDS011;11833;52.554;13.554;2023-08-20T02:07:36;13.23;;;8.68;;
23322;SDS011;11833;52.554;13.554;2023-08-20T02:10:02;9.57;;;8.57;;
23322;SDS011;11833;52.554;13.554;2023-08-20T02:12:28;9.35;;;8.45;;
23322;SDS011;11833;52.554;13.554;2023-08-20T02:14:54;10.40;;;9.38;;
23322;SDS011;11833;52.554;13.554;2023-08-20T02:17:20;9.50;;;8.60;;
23322;SDS011;11833;52.554;13.554;2023-08-20T02:19:46;9.40;;;7.88;;
23322;SDS011;11833;52.554;13.554;2023-08-20T02:22:12;10.18;;;7.72;;
23322;SDS011;11833;52.554;13.554;2023-08-20T02:24:37;10.43;;;8.65;;
23322;SDS011;11833;52.554;13.554;2023-08-20T02:27:03;10.48;;;8.70;;
23322;SDS011;11833;52.554;13.554;2023-08-20T02:29:29;11.88;;;8.75;;
23322;SDS011;11833;52.554;13.554;2023-08-20T02:31:55;9.60;;;8.25;;
23322;SDS011;11833;52.554;13.554;2023-08-20T02:34:20;13.45;;;8.90;;
23322;SDS011;11833;52.554;13.554;2023-08-20T02:36:47;12.18;;;8.88;;
23322;SDS011;11833;52.554;13.554;2023-08-20T02:39:13;9.45;;;8.48;;
23322;SDS011;11833;52.554;13.554;2023-08-20T02:41:39;12.73;;;9.57;;
23322;SDS011;11833;52.554;13.554;2023-08-20T02:44:05;10.90;;;8.73;;
23322;SDS011;11833;52.554;13.554;2023-08-20T02:46:30;10.68;;;8.65;;
23322;SDS011;11833;52.554;13.554;2023-08-20T02:48:56;12.50;;;9.30;;
23322;SDS011;11833;52.554;13.554;2023-08-20T02:51:22;9.98;;;8.98;;
23322;SDS011;11833;52.554;13.554;2023-08-20T02:53:48;10.98;;;9.23;;
23322;SDS011;11833;52.554;13.554;2023-08-20T02:56:14;10.23;;;9.25;;
23322;SDS011;11833;52.554;13.554;2023-08-20T02:58:40;10.32;;;9.25;;
23322;SDS011;11833;52.554;13.554;2023-08-20T03:01:05;10.93;;;9.77;;
23322;SDS011;11833;52.554;13.554;2023-08-20T03:03:31;9.95;;;8.95;;
23322;SDS011;11833;52.554;13.554;2023-08-20T03:05:57;15.48;;;9.52;;
23322;SDS011;11833;52.554;13.554;2023-08-20T03:08:23;12.20;;;8.48;;
23322;SDS011;11833;52.554;13.554;2023-08-20T03:10:48;11.65;;;9.18;;
23322;SDS011;11833;52.554;13.554;2023-08-20T03:13:14;15.18;;;9.60;;
23322;SDS011;11833;52.554;13.554;2023-08-20T03:15:40;14.02;;;10.43;;
23322;SDS011;11833;52.554;13.554;2023-08-20T03:18:06;10.10;;;9.07;;
23322;SDS011;11833;52.554;13.554;2023-08-20T03:20:32;13.32;;;8.93;;
23322;SDS011;11833;52.554;13.554;2023-08-20T03:22:57;12.50;;;10.13;;
23322;SDS011;11833;52.554;13.554;2023-08-20T03:25:23;9.77;;;8.07;;
23322;SDS011;11833;52.554;13.554;2023-08-20T03:27:49;10.13;;;8.57;;
23322;SDS011;11833;52.554;13.554;2023-08-20T03:30:16;11.75;;;9.45;;
23322;SDS011;11833;52.554;13.554;2023-08-20T03:32:42;9.77;;;8.77;;
23322;SDS011;11833;52.554;13.554;2023-08-20T03:35:08;11.40;;;8.93;;
23322;SDS011;11833;52.554;13.554;2023-08-20T03:37:34;10.23;;;8.35;;
23322;SDS011;11833;52.554;13.554;2023-08-20T03:40:00;10.45;;;9.18;;
23322;SDS011;11833;52.554;13.554;2023-08-20T03:42:27;8.77;;;7.88;;
23322;SDS011;11833;52.554;13.554;2023-08-20T03:44:53;9.93;;;8.93;;
23322;SDS011;11833;52.554;13.554;2023-08-20T03:47:18;11.93;;;8.57;;
23322;SDS011;11833;52.554;13.554;2023-08-20T03:49:45;9.25;;;8.40;;
23322;SDS011;11833;52.554;13.554;2023-08-20T03:52:13;8.93;;;8.00;;
23322;SDS011;11833;52.554;13.554;2023-08-20T03:54:39;10.82;;;8.23;;
23322;SDS011;11833;52.554;13.554;2023-08-20T03:57:05;12.50;;;9.02;;
23322;SDS011;11833;52.554;13.554;2023-08-20T03:59:30;11.43;;;8.80;;
23322;SDS011;11833;52.554;13.554;2023-08-20T04:01:56;9.95;;;7.97;;
23322;SDS011;11833;52.554;13.554;2023-08-20T04:04:22;8.82;;;7.93;;
23322;SDS011;11833;52.554;13.554;2023-08-20T04:06:48;9.93;;;8.25;;
23322;SDS011;11833;52.554;13.554;2023-08-20T04:09:15;13.82;;;7.72;;
23322;SDS011;11833;52.554;13.554;2023-08-20T04:11:41;10.77;;;8.95;;
23322;SDS011;11833;52.554;13.554;2023-08-20T04:14:07;9.25;;;8.30;;
23322;SDS011;11833;52.554;13.554;2023-08-20T04:16:33;12.45;;;8.73;;
23322;SDS011;11833;52.554;13.554;2023-08-20T04:18:59;11.63;;;8.48;;
23322;SDS011;11833;52.554;13.554;2023-08-20T04:21:24;9.10;;;8.10;;
23322;SDS011;11833;52.554;13.554;2023-08-20T04:23:51;9.60;;;8.00;;
23322;SDS011;11833;52.554;13.554;2023-08-20T04:26:16;8.95;;;7.97;;
23322;SDS011;11833;52.554;13.554;2023-08-20T04:28:43;11.98;;;8.77;;
23322;SDS011;11833;52.554;13.554;2023-08-20T04:31:08;8.30;;;7.03;;
23322;SDS011;11833;52.554;13.554;2023-08-20T04:33:34;12.07;;;8.95;;
23322;SDS011;11833;52.554;13.554;2023-08-20T04:36:00;15.20;;;9.00;;
23322;SDS011;11833;52.554;13.554;2023-08-20T04:38:26;10.60;;;7.15;;
23322;SDS011;11833;52.554;13.554;2023-08-20T04:40:51;9.77;;;7.47;;
23322;SDS011;11833;52.554;13.554;2023-08-20T04:43:17;9.20;;;8.23;;
23322;SDS011;11833;52.554;13.554;2023-08-20T04:45:43;11.82;;;8.38;;
23322;SDS011;11833;52.554;13.554;2023-08-20T04:48:08;8.27;;;7.47;;
23322;SDS011;11833;52.554;13.554;2023-08-20T04:50:34;8.80;;;7.90;;
23322;SDS011;11833;52.554;13.554;2023-08-20T04:53:00;10.77;;;8.27;;
23322;SDS011;11833;52.554;13.554;2023-08-20T04:55:26;9.07;;;7.68;;
23322;SDS011;11833;52.554;13.554;2023-08-20T04:57:53;11.45;;;8.40;;
23322;SDS011;11833;52.554;13.554;2023-08-20T05:00:18;11.27;;;8.07;;
23322;SDS011;11833;52.554;13.554;2023-08-20T05:02:46;10.40;;;8.27;;
23322;SDS011;11833;52.554;13.554;2023-08-20T05:05:12;9.20;;;8.27;;
23322;SDS011;11833;52.554;13.554;2023-08-20T05:07:37;12.50;;;8.80;;
23322;SDS011;11833;52.554;13.554;2023-08-20T05:10:03;11.57;;;9.45;;
23322;SDS011;11833;52.554;13.554;2023-08-20T05:12:29;10.32;;;8.90;;
23322;SDS011;11833;52.554;13.554;2023-08-20T05:14:55;10.60;;;9.30;;
23322;SDS011;11833;52.554;13.554;2023-08-20T05:17:21;9.63;;;7.25;;
23322;SDS011;11833;52.554;13.554;2023-08-20T05:19:47;9.38;;;7.78;;
23322;SDS011;11833;52.554;13.554;2023-08-20T05:22:13;13.38;;;9.18;;
23322;SDS011;11833;52.554;13.554;2023-08-20T05:24:39;14.65;;;8.00;;
23322;SDS011;11833;52.554;13.554;2023-08-20T05:29:48;9.13;;;8.10;;
23322;SDS011;11833;52.554;13.554;2023-08-20T05:32:14;10.10;;;8.10;;
23322;SDS011;11833;52.554;13.554;2023-08-20T05:34:41;11.70;;;8.98;;
23322;SDS011;11833;52.554;13.554;2023-08-20T05:37:07;12.13;;;9.43;;
23322;SDS011;11833;52.554;13.554;2023-08-20T05:39:37;10.98;;;8.45;;
23322;SDS011;11833;52.554;13.554;2023-08-20T05:42:06;11.32;;;8.88;;
23322;SDS011;11833;52.554;13.554;2023-08-20T05:44:32;9.45;;;8.13;;
23322;SDS011;11833;52.554;13.554;2023-08-20T05:46:58;10.23;;;9.02;;
23322;SDS011;11833;52.554;13.554;2023-08-20T05:49:24;10.35;;;9.25;;
23322;SDS011;11833;52.554;13.554;2023-08-20T05:51:49;10.02;;;8.75;;
23322;SDS011;11833;52.554;13.554;2023-08-20T05:54:15;11.70;;;8.95;;
23322;SDS011;11833;52.554;13.554;2023-08-20T05:56:41;11.70;;;10.30;;
23322;SDS011;11833;52.554;13.554;2023-08-20T05:59:07;9.77;;;8.20;;
23322;SDS011;11833;52.554;13.554;2023-08-20T06:01:32;7.63;;;6.85;;
23322;SDS011;11833;52.554;13.554;2023-08-20T06:03:58;11.43;;;8.27;;
23322;SDS011;11833;52.554;13.554;2023-08-20T06:06:25;9.77;;;7.55;;
23322;SDS011;11833;52.554;13.554;2023-08-20T06:08:51;7.38;;;6.65;;
23322;SDS011;11833;52.554;13.554;2023-08-20T06:11:17;9.18;;;7.10;;
23322;SDS011;11833;52.554;13.554;2023-08-20T06:13:44;9.88;;;8.88;;
23322;SDS011;11833;52.554;13.554;2023-08-20T06:16:10;10.07;;;9.02;;
23322;SDS011;11833;52.554;13.554;2023-08-20T06:18:35;12.10;;;8.32;;
23322;SDS011;11833;52.554;13.554;2023-08-20T06:21:02;9.13;;;8.27;;
23322;SDS011;11833;52.554;13.554;2023-08-20T06:23:28;9.15;;;7.78;;
23322;SDS011;11833;52.554;13.554;2023-08-20T06:25:54;10.65;;;8.57;;
23322;SDS011;11833;52.554;13.554;2023-08-20T06:28:20;9.85;;;8.85;;
23322;SDS011;11833;52.554;13.554;2023-08-20T06:30:46;11.48;;;9.05;;
23322;SDS011;11833;52.554;13.554;2023-08-20T06:33:11;11.57;;;9.02;;
23322;SDS011;11833;52.554;13.554;2023-08-20T06:35:38;14.93;;;10.95;;
23322;SDS011;11833;52.554;13.554;2023-08-20T06:38:04;7.90;;;7.10;;
23322;SDS011;11833;52.554;13.554;2023-08-20T06:40:30;9.98;;;8.82;;
23322;SDS011;11833;52.554;13.554;2023-08-20T06:42:56;12.45;;;9.55;;
23322;SDS011;11833;52.554;13.554;2023-08-20T06:45:21;11.50;;;7.15;;
23322;SDS011;11833;52.554;13.554;2023-08-20T06:47:47;7.93;;;7.03;;
23322;SDS011;11833;52.554;13.554;2023-08-20T06:50:13;11.52;;;8.40;;
23322;SDS011;11833;52.554;13.554;2023-08-20T06:52:39;9.23;;;7.75;;
23322;SDS011;11833;52.554;13.554;2023-08-20T06:55:05;9.10;;;8.23;;
23322;SDS011;11833;52.554;13.554;2023-08-20T06:57:31;10.50;;;7.88;;
23322;SDS011;11833;52.554;13.554;2023-08-20T06:59:56;9.00;;;7.55;;
23322;SDS011;11833;52.554;13.554;2023-08-20T07:02:22;7.68;;;6.85;;
23322;SDS011;11833;52.554;13.554;2023-08-20T07:04:48;9.50;;;6.47;;
23322;SDS011;11833;52.554;13.554;2023-08-20T07:07:14;7.10;;;6.40;;
23322;SDS011;11833;52.554;13.554;2023-08-20T07:09:41;9.07;;;7.22;;
23322;SDS011;11833;52.554;13.554;2023-08-20T07:12:07;8.80;;;6.78;;
23322;SDS011;11833;52.554;13.554;2023-08-20T07:14:32;6.70;;;5.95;;
23322;SDS011;11833;52.554;13.554;2023-08-20T07:16:58;7.72;;;6.90;;
23322;SDS011;11833;52.554;13.554;2023-08-20T07:19:25;9.75;;;7.05;;
23322;SDS011;11833;52.554;13.554;2023-08-20T07:21:51;10.18;;;8.07;;
23322;SDS011;11833;52.554;13.554;2023-08-20T07:24:16;7.70;;;6.28;;
23322;SDS011;11833;52.554;13.554;2023-08-20T07:26:43;13.70;;;9.10;;
23322;SDS011;11833;52.554;13.554;2023-08-20T07:29:09;7.07;;;6.10;;
23322;SDS011;11833;52.554;13.554;2023-08-20T07:31:34;9.77;;;7.90;;
23322;SDS011;11833;52.554;13.554;2023-08-20T07:34:01;10.05;;;7.28;;
23322;SDS011;11833;52.554;13.554;2023-08-20T07:36:29;8.60;;;7.47;;
23322;SDS011;11833;52.554;13.554;2023-08-20T07:38:55;10.07;;;6.75;;
23322;SDS011;11833;52.554;13.554;2023-08-20T07:41:21;10.90;;;7.00;;
23322;SDS011;11833;52.554;13.554;2023-08-20T07:43:47;7.85;;;6.57;;
23322;SDS011;11833;52.554;13.554;2023-08-20T07:46:14;8.50;;;7.40;;
23322;SDS011;11833;52.554;13.554;2023-08-20T07:48:40;12.85;;;9.88;;
23322;SDS011;11833;52.554;13.554;2023-08-20T07:51:06;6.88;;;6.28;;
23322;SDS011;11833;52.554;13.554;2023-08-20T07:53:32;8.27;;;7.47;;
23322;SDS011;11833;52.554;13.554;2023-08-20T07:56:00;16.80;;;8.68;;
23322;SDS011;11833;52.554;13.554;2023-08-20T07:58:26;11.95;;;7.85;;
23322;SDS011;11833;52.554;13.554;2023-08-20T08:00:53;8.48;;;7.57;;
23322;SDS011;11833;52.554;13.554;2023-08-20T08:03:19;9.93;;;8.88;;
23322;SDS011;11833;52.554;13.554;2023-08-20T08:05:48;12.48;;;8.50;;
23322;SDS011;11833;52.554;13.554;2023-08-20T08:08:15;7.32;;;6.53;;
23322;SDS011;11833;52.554;13.554;2023-08-20T08:10:42;8.45;;;6.70;;
23322;SDS011;11833;52.554;13.554;2023-08-20T08:13:13;11.10;;;7.00;;
23322;SDS011;11833;52.554;13.554;2023-08-20T08:15:43;10.20;;;7.53;;
23322;SDS011;11833;52.554;13.554;2023-08-20T08:18:08;11.60;;;8.20;;
23322;SDS011;11833;52.554;13.554;2023-08-20T08:20:34;9.10;;;8.00;;
23322;SDS011;11833;52.554;13.554;2023-08-20T08:23:00;9.25;;;8.15;;
23322;SDS011;11833;52.554;13.554;2023-08-20T08:25:26;7.75;;;7.05;;
23322;SDS011;11833;52.554;13.554;2023-08-20T08:27:53;10.88;;;9.13;;
23322;SDS011;11833;52.554;13.554;2023-08-20T08:30:19;9.02;;;7.93;;
23322;SDS011;11833;52.554;13.554;2023-08-20T08:32:44;7.88;;;6.80;;
23322;SDS011;11833;52.554;13.554;2023-08-20T08:35:10;10.95;;;9.45;;
23322;SDS011;11833;52.554;13.554;2023-08-20T08:37:36;10.80;;;8.63;;
23322;SDS011;11833;52.554;13.554;2023-08-20T08:40:02;16.73;;;11.50;;
23322;SDS011;11833;52.554;13.554;2023-08-20T08:42:32;10.10;;;9.10;;
23322;SDS011;11833;52.554;13.554;2023-08-20T08:45:01;9.80;;;7.85;;
23322;SDS011;11833;52.554;13.554;2023-08-20T08:47:28;14.50;;;8.18;;
23322;SDS011;11833;52.554;13.554;2023-08-20T08:49:55;10.38;;;7.20;;
23322;SDS011;11833;52.554;13.554;2023-08-20T08:52:24;11.73;;;7.43;;
23322;SDS011;11833;52.554;13.554;2023-08-20T08:54:51;10.52;;;8.27;;
23322;SDS011;11833;52.554;13.554;2023-08-20T08:57:18;15.15;;;7.88;;
23322;SDS011;11833;52.554;13.554;2023-08-20T08:59:44;9.27;;;8.32;;
23322;SDS011;11833;52.554;13.554;2023-08-20T09:02:10;11.68;;;7.70;;
23322;SDS011;11833;52.554;13.554;2023-08-20T09:04:42;9.30;;;7.20;;
23322;SDS011;11833;52.554;13.554;2023-08-20T09:07:12;14.57;;;9.68;;
23322;SDS011;11833;52.554;13.554;2023-08-20T09:09:43;13.10;;;9.30;;
23322;SDS011;11833;52.554;13.554;2023-08-20T09:12:14;10.75;;;8.10;;
23322;SDS011;11833;52.554;13.554;2023-08-20T09:14:51;9.00;;;7.38;;
23322;SDS011;11833;52.554;13.554;2023-08-20T09:17:17;8.07;;;7.28;;
23322;SDS011;11833;52.554;13.554;2023-08-20T09:19:46;7.43;;;5.93;;
23322;SDS011;11833;52.554;13.554;2023-08-20T09:22:13;9.27;;;6.63;;
23322;SDS011;11833;52.554;13.554;2023-08-20T09:24:41;9.43;;;8.43;;
23322;SDS011;11833;52.554;13.554;2023-08-20T09:27:14;9.23;;;8.02;;
23322;SDS011;11833;52.554;13.554;2023-08-20T09:29:43;10.00;;;8.02;;
23322;SDS011;11833;52.554;13.554;2023-08-20T09:32:20;9.23;;;8.23;;
23322;SDS011;11833;52.554;13.554;2023-08-20T09:34:49;8.40;;;7.57;;
23322;SDS011;11833;52.554;13.554;2023-08-20T09:37:18;7.32;;;6.45;;
23322;SDS011;11833;52.554;13.554;2023-08-20T09:39:45;7.20;;;6.50;;
23322;SDS011;11833;52.554;13.554;2023-08-20T09:42:11;8.02;;;7.15;;
23322;SDS011;11833;52.554;13.554;2023-08-20T09:44:39;7.63;;;6.85;;
23322;SDS011;11833;52.554;13.554;2023-08-20T09:47:11;7.35;;;6.65;;
23322;SDS011;11833;52.554;13.554;2023-08-20T09:49:39;8.43;;;6.53;;
23322;SDS011;11833;52.554;13.554;2023-08-20T09:52:08;7.30;;;6.15;;
23322;SDS011;11833;52.554;13.554;2023-08-20T10:00:00;6.35;;;5.65;;
23322;SDS011;11833;52.554;13.554;2023-08-20T10:02:28;6.93;;;6.20;;
23322;SDS011;11833;52.554;13.554;2023-08-20T10:04:54;7.15;;;6.45;;
23322;SDS011;11833;52.554;13.554;2023-08-20T10:07:21;8.63;;;7.28;;
23322;SDS011;11833;52.554;13.554;2023-08-20T10:09:49;8.05;;;6.30;;
23322;SDS011;11833;52.554;13.554;2023-08-20T10:12:17;8.70;;;7.15;;
23322;SDS011;11833;52.554;13.554;2023-08-20T10:14:43;5.93;;;5.40;;
23322;SDS011;11833;52.554;13.554;2023-08-20T10:17:10;6.53;;;5.93;;
23322;SDS011;11833;52.554;13.554;2023-08-20T10:19:37;6.13;;;5.50;;
23322;SDS011;11833;52.554;13.554;2023-08-20T10:22:04;6.32;;;5.60;;
23322;SDS011;11833;52.554;13.554;2023-08-20T10:27:31;7.22;;;4.50;;
23322;SDS011;11833;52.554;13.554;2023-08-20T10:29:59;6.22;;;4.13;;
23322;SDS011;11833;52.554;13.554;2023-08-20T10:32:47;5.88;;;5.07;;
23322;SDS011;11833;52.554;13.554;2023-08-20T10:35:22;6.57;;;3.85;;
23322;SDS011;11833;52.554;13.554;2023-08-20T10:43:34;4.53;;;3.75;;
23322;SDS011;11833;52.554;13.554;2023-08-20T10:48:49;4.22;;;3.83;;
23322;SDS011;11833;52.554;13.554;2023-08-20T10:51:32;3.90;;;3.50;;
23322;SDS011;11833;52.554;13.554;2023-08-20T10:56:42;3.75;;;3.45;;
23322;SDS011;11833;52.554;13.554;2023-08-20T10:59:23;3.20;;;2.90;;
23322;SDS011;11833;52.554;13.554;2023-08-20T11:01:55;2.70;;;2.50;;
23322;SDS011;11833;52.554;13.554;2023-08-20T11:04:23;3.72;;;2.72;;
23322;SDS011;11833;52.554;13.554;2023-08-20T11:06:58;3.85;;;2.80;;
23322;SDS011;11833;52.554;13.554;2023-08-20T11:09:28;2.60;;;2.40;;
23322;SDS011;11833;52.554;13.554;2023-08-20T11:11:56;3.45;;;2.38;;
23322;SDS011;11833;52.554;13.554;2023-08-20T11:14:22;2.65;;;2.30;;
23322;SDS011;11833;52.554;13.554;2023-08-20T11:16:49;3.22;;;2.75;;
23322;SDS011;11833;52.554;13.554;2023-08-20T11:19:19;3.45;;;2.13;;
23322;SDS011;11833;52.554;13.554;2023-08-20T11:21:46;4.10;;;2.53;;
23322;SDS011;11833;52.554;13.554;2023-08-20T11:24:13;5.13;;;2.30;;
23322;SDS011;11833;52.554;13.554;2023-08-20T11:26:39;2.00;;;1.80;;
23322;SDS011;11833;52.554;13.554;2023-08-20T11:29:14;4.03;;;1.95;;
23322;SDS011;11833;52.554;13.554;2023-08-20T11:31:45;2.85;;;1.63;;
23322;SDS011;11833;52.554;13.554;2023-08-20T11:34:15;1.60;;;1.50;;
23322;SDS011;11833;52.554;13.554;2023-08-20T11:36:41;1.88;;;1.77;;
23322;SDS011;11833;52.554;13.554;2023-08-20T11:39:07;2.70;;;1.90;;
23322;SDS011;11833;52.554;13.554;2023-08-20T11:41:37;2.55;;;1.80;;
23322;SDS011;11833;52.554;13.554;2023-08-20T11:44:04;2.83;;;2.40;;
23322;SDS011;11833;52.554;13.554;2023-08-20T11:46:31;2.05;;;1.80;;
23322;SDS011;11833;52.554;13.554;2023-08-20T11:49:10;2.55;;;1.58;;
23322;SDS011;11833;52.554;13.554;2023-08-20T11:54:13;1.63;;;1.40;;
23322;SDS011;11833;52.554;13.554;2023-08-20T11:56:44;2.35;;;1.30;;
23322;SDS011;11833;52.554;13.554;2023-08-20T11:59:16;1.83;;;1.67;;
23322;SDS011;11833;52.554;13.554;2023-08-20T12:01:52;2.65;;;1.58;;
23322;SDS011;11833;52.554;13.554;2023-08-20T12:04:26;3.25;;;1.40;;
23322;SDS011;11833;52.554;13.554;2023-08-20T12:07:10;1.63;;;1.25;;
23322;SDS011;11833;52.554;13.554;2023-08-20T12:09:39;1.60;;;1.23;;
23322;SDS011;11833;52.554;13.554;2023-08-20T12:12:06;1.88;;;1.33;;
23322;SDS011;11833;52.554;13.554;2023-08-20T12:14:33;2.03;;;1.42;;
23322;SDS011;11833;52.554;13.554;2023-08-20T12:17:01;1.50;;;1.40;;
23322;SDS011;11833;52.554;13.554;2023-08-20T12:19:30;1.20;;;1.10;;
23322;SDS011;11833;52.554;13.554;2023-08-20T12:21:56;2.53;;;1.58;;
23322;SDS011;11833;52.554;13.554;2023-08-20T12:24:22;1.63;;;1.30;;
23322;SDS011;11833;52.554;13.554;2023-08-20T12:26:47;1.23;;;1.10;;
23322;SDS011;11833;52.554;13.554;2023-08-20T12:29:14;2.45;;;1.23;;
23322;SDS011;11833;52.554;13.554;2023-08-20T12:31:41;1.60;;;1.02;;
23322;SDS011;11833;52.554;13.554;2023-08-20T12:34:07;1.75;;;1.02;;
23322;SDS011;11833;52.554;13.554;2023-08-20T12:36:35;2.10;;;1.27;;
23322;SDS011;11833;52.554;13.554;2023-08-20T12:39:01;1.10;;;1.00;;
23322;SDS011;11833;52.554;13.554;2023-08-20T12:41:29;2.25;;;1.67;;
23322;SDS011;11833;52.554;13.554;2023-08-20T12:43:56;1.40;;;1.30;;
23322;SDS011;11833;52.554;13.554;2023-08-20T12:46:22;2.45;;;1.60;;
23322;SDS011;11833;52.554;13.554;2023-08-20T12:48:48;4.82;;;1.30;;
23322;SDS011;11833;52.554;13.554;2023-08-20T12:51:13;1.70;;;1.30;;
23322;SDS011;11833;52.554;13.554;2023-08-20T12:53:42;0.95;;;0.90;;
23322;SDS011;11833;52.554;13.554;2023-08-20T12:56:08;1.33;;;1.13;;
23322;SDS011;11833;52.554;13.554;2023-08-20T12:58:34;1.77;;;1.20;;
23322;SDS011;11833;52.554;13.554;2023-08-20T13:00:59;1.52;;;1.13;;
23322;SDS011;11833;52.554;13.554;2023-08-20T13:03:26;3.50;;;1.10;;
23322;SDS011;11833;52.554;13.554;2023-08-20T13:05:53;1.60;;;1.20;;
23322;SDS011;11833;52.554;13.554;2023-08-20T13:08:20;1.33;;;1.23;;
23322;SDS011;11833;52.554;13.554;2023-08-20T13:10:48;1.40;;;1.30;;
23322;SDS011;11833;52.554;13.554;2023-08-20T13:13:20;1.88;;;1.10;;
23322;SDS011;11833;52.554;13.554;2023-08-20T13:15:48;1.95;;;1.10;;
23322;SDS011;11833;52.554;13.554;2023-08-20T13:18:17;3.97;;;1.73;;
23322;SDS011;11833;52.554;13.554;2023-08-20T13:20:44;3.20;;;1.20;;
23322;SDS011;11833;52.554;13.554;2023-08-20T13:23:10;1.42;;;1.17;;
23322;SDS011;11833;52.554;13.554;2023-08-20T13:25:36;2.80;;;1.80;;
23322;SDS011;11833;52.554;13.554;2023-08-20T13:28:02;2.53;;;1.20;;
23322;SDS011;11833;52.554;13.554;2023-08-20T13:30:28;1.50;;;1.00;;
23322;SDS011;11833;52.554;13.554;2023-08-20T13:32:54;3.35;;;1.02;;
23322;SDS011;11833;52.554;13.554;2023-08-20T13:35:19;1.10;;;0.90;;
23322;SDS011;11833;52.554;13.554;2023-08-20T13:37:45;1.80;;;1.00;;
23322;SDS011;11833;52.554;13.554;2023-08-20T13:40:11;1.40;;;1.30;;
23322;SDS011;11833;52.554;13.554;2023-08-20T13:42:37;1.67;;;1.20;;
23322;SDS011;11833;52.554;13.554;2023-08-20T13:45:02;1.05;;;0.90;;
23322;SDS011;11833;52.554;13.554;2023-08-20T13:47:29;3.00;;;1.38;;
23322;SDS011;11833;52.554;13.554;2023-08-20T13:49:55;0.93;;;0.77;;
23322;SDS011;11833;52.554;13.554;2023-08-20T13:52:20;2.00;;;0.80;;
23322;SDS011;11833;52.554;13.554;2023-08-20T13:54:46;4.40;;;2.17;;
23322;SDS011;11833;52.554;13.554;2023-08-20T13:57:12;3.03;;;0.80;;
23322;SDS011;11833;52.554;13.554;2023-08-20T13:59:38;1.60;;;1.20;;
23322;SDS011;11833;52.554;13.554;2023-08-20T14:02:04;3.22;;;0.90;;
23322;SDS011;11833;52.554;13.554;2023-08-20T14:04:30;1.42;;;0.80;;
23322;SDS011;11833;52.554;13.554;2023-08-20T14:06:56;1.23;;;0.68;;
23322;SDS011;11833;52.554;13.554;2023-08-20T14:09:22;1.48;;;0.90;;
23322;SDS011;11833;52.554;13.554;2023-08-20T14:11:47;2.97;;;0.77;;
23322;SDS011;11833;52.554;13.554;2023-08-20T14:14:13;2.03;;;1.00;;
23322;SDS011;11833;52.554;13.554;2023-08-20T14:16:39;1.30;;;0.60;;
23322;SDS011;11833;52.554;13.554;2023-08-20T14:19:05;1.33;;;0.70;;
23322;SDS011;11833;52.554;13.554;2023-08-20T14:21:31;1.17;;;0.60;;
23322;SDS011;11833;52.554;13.554;2023-08-20T14:23:56;0.70;;;0.63;;
23322;SDS011;11833;52.554;13.554;2023-08-20T14:26:22;2.13;;;0.82;;
23322;SDS011;11833;52.554;13.554;2023-08-20T14:28:48;4.18;;;0.60;;
23322;SDS011;11833;52.554;13.554;2023-08-20T14:31:14;3.17;;;0.68;;
23322;SDS011;11833;52.554;13.554;2023-08-20T14:33:40;2.63;;;0.68;;
23322;SDS011;11833;52.554;13.554;2023-08-20T14:36:06;1.02;;;0.43;;
23322;SDS011;11833;52.554;13.554;2023-08-20T14:38:32;1.27;;;0.80;;
23322;SDS011;11833;52.554;13.554;2023-08-20T14:41:01;0.88;;;0.50;;
23322;SDS011;11833;52.554;13.554;2023-08-20T14:43:27;0.60;;;0.50;;
23322;SDS011;11833;52.554;13.554;2023-08-20T14:45:57;0.70;;;0.50;;
23322;SDS011;11833;52.554;13.554;2023-08-20T14:48:23;2.05;;;0.70;;
23322;SDS011;11833;52.554;13.554;2023-08-20T14:50:50;2.38;;;1.05;;
23322;SDS011;11833;52.554;13.554;2023-08-20T14:53:16;3.58;;;1.10;;
23322;SDS011;11833;52.554;13.554;2023-08-20T14:55:43;1.85;;;1.17;;
23322;SDS011;11833;52.554;13.554;2023-08-20T14:58:10;3.38;;;1.08;;
23322;SDS011;11833;52.554;13.554;2023-08-20T15:00:36;1.52;;;0.70;;